createdAt,value
2022-11-15T00:02:34.858Z,94786
2022-11-15T00:06:00.117Z,94785
2022-11-15T00:09:25.368Z,94789
2022-11-15T00:12:50.700Z,94786
2022-11-15T00:16:15.925Z,94778
2022-11-15T00:19:41.184Z,94777
2022-11-15T00:23:06.433Z,94772
2022-11-15T00:26:31.698Z,94773
2022-11-15T00:29:56.986Z,94766
2022-11-15T00:33:22.238Z,94773
2022-11-15T00:36:47.474Z,94772
2022-11-15T00:40:12.737Z,94774
2022-11-15T00:43:38.010Z,94778
2022-11-15T00:47:03.276Z,94773
2022-11-15T00:50:28.499Z,94767
2022-11-15T00:53:53.759Z,94762
2022-11-15T00:57:19.009Z,94766
2022-11-15T01:00:44.378Z,94762
2022-11-15T01:04:09.574Z,94763
2022-11-15T01:07:34.861Z,94761
2022-11-15T01:11:00.047Z,94764
2022-11-15T01:14:25.624Z,94760
2022-11-15T01:17:50.526Z,94763
2022-11-15T01:21:15.809Z,94763
2022-11-15T01:24:41.052Z,94766
2022-11-15T01:28:06.302Z,94764
2022-11-15T01:31:31.538Z,94763
2022-11-15T01:34:56.794Z,94765
2022-11-15T01:38:22.066Z,94766
2022-11-15T01:41:47.282Z,94768
2022-11-15T01:45:12.586Z,94760
2022-11-15T01:48:37.834Z,94758
2022-11-15T01:52:03.072Z,94754
2022-11-15T01:55:28.375Z,94751
2022-11-15T01:58:53.587Z,94748
2022-11-15T02:02:18.820Z,94733
2022-11-15T02:05:44.075Z,94737
2022-11-15T02:09:09.340Z,94740
2022-11-15T02:12:34.611Z,94737
2022-11-15T02:16:02.908Z,94737
2022-11-15T02:19:25.067Z,94738
2022-11-15T02:22:50.331Z,94730
2022-11-15T02:26:15.592Z,94729
2022-11-15T02:29:40.896Z,94725
2022-11-15T02:33:06.152Z,94716
2022-11-15T02:36:31.399Z,94713
2022-11-15T02:39:56.636Z,94706
2022-11-15T02:43:21.909Z,94698
2022-11-15T02:46:47.186Z,94693
2022-11-15T02:50:12.409Z,94698
2022-11-15T02:53:37.694Z,94694
2022-11-15T02:57:02.947Z,94688
2022-11-15T03:00:28.245Z,94678
2022-11-15T03:03:53.512Z,94688
2022-11-15T03:07:18.801Z,94689
2022-11-15T03:10:44.008Z,94681
2022-11-15T03:14:09.230Z,94676
2022-11-15T03:17:34.479Z,94668
2022-11-15T03:20:59.773Z,94675
2022-11-15T03:24:26.234Z,94680
2022-11-15T03:27:50.214Z,94679
2022-11-15T03:31:15.475Z,94680
2022-11-15T03:34:40.727Z,94675
2022-11-15T03:38:06.024Z,94674
2022-11-15T03:41:31.229Z,94677
2022-11-15T03:44:56.491Z,94677
2022-11-15T03:48:21.773Z,94677
2022-11-15T03:51:47.041Z,94676
2022-11-15T03:55:12.320Z,94671
2022-11-15T03:58:37.567Z,94672
2022-11-15T04:02:02.801Z,94666
2022-11-15T04:05:28.048Z,94658
2022-11-15T04:08:53.281Z,94660
2022-11-15T04:12:18.578Z,94663
2022-11-15T04:15:43.795Z,94656
2022-11-15T04:19:09.063Z,94652
2022-11-15T04:22:34.319Z,94651
2022-11-15T04:25:59.567Z,94645
2022-11-15T04:29:24.835Z,94643
2022-11-15T04:32:50.057Z,94646
2022-11-15T04:36:15.293Z,94643
2022-11-15T04:39:40.537Z,94633
2022-11-15T04:43:05.762Z,94629
2022-11-15T04:46:31.020Z,94638
2022-11-15T04:49:56.287Z,94639
2022-11-15T04:53:21.931Z,94642
2022-11-15T04:56:47.307Z,94643
2022-11-15T05:00:12.586Z,94639
2022-11-15T05:03:38.097Z,94635
2022-11-15T05:07:03.354Z,94629
2022-11-15T05:10:28.666Z,94633
2022-11-15T05:13:54.018Z,94628
2022-11-15T05:17:19.259Z,94631
2022-11-15T05:20:44.519Z,94631
2022-11-15T05:24:09.772Z,94627
2022-11-15T05:27:35.019Z,94628
2022-11-15T05:31:00.274Z,94628
2022-11-15T05:34:25.562Z,94623
2022-11-15T05:37:50.815Z,94623
2022-11-15T05:41:16.052Z,94628
2022-11-15T05:44:41.318Z,94627
2022-11-15T05:48:06.571Z,94626
2022-11-15T05:51:31.856Z,94619
2022-11-15T05:54:57.194Z,94624
2022-11-15T05:58:22.389Z,94616
2022-11-15T06:01:47.705Z,94613
2022-11-15T06:05:12.920Z,94617
2022-11-15T06:08:38.148Z,94610
2022-11-15T06:12:03.468Z,94615
2022-11-15T06:15:28.691Z,94612
2022-11-15T06:18:53.935Z,94613
2022-11-15T06:22:19.141Z,94610
2022-11-15T06:25:44.396Z,94610
2022-11-15T06:29:09.678Z,94611
2022-11-15T06:32:34.906Z,94602
2022-11-15T06:36:00.160Z,94603
2022-11-15T06:39:25.457Z,94599
2022-11-15T06:42:50.714Z,94605
2022-11-15T06:46:18.959Z,94606
2022-11-15T06:49:44.208Z,94601
2022-11-15T06:53:10.785Z,94612
2022-11-15T06:56:41.676Z,94608
2022-11-15T07:00:08.600Z,94603
2022-11-15T07:03:34.519Z,94608
2022-11-15T07:07:03.136Z,94605
2022-11-15T07:10:28.379Z,94609
2022-11-15T07:13:53.582Z,94606
2022-11-15T07:17:18.809Z,94603
2022-11-15T07:20:44.250Z,94605
2022-11-15T07:24:09.330Z,94606
2022-11-15T07:27:34.620Z,94603
2022-11-15T07:30:59.880Z,94604
2022-11-15T07:34:25.155Z,94605
2022-11-15T07:37:50.408Z,94597
2022-11-15T07:41:15.659Z,94594
2022-11-15T07:44:40.969Z,94596
2022-11-15T07:48:06.241Z,94594
2022-11-15T07:51:31.514Z,94588
2022-11-15T07:54:56.781Z,94587
2022-11-15T07:58:22.017Z,94591
2022-11-15T08:01:47.442Z,94597
2022-11-15T08:05:12.558Z,94594
2022-11-15T08:08:37.822Z,94597
2022-11-15T08:12:03.099Z,94593
2022-11-15T08:15:28.300Z,94597
2022-11-15T08:18:53.530Z,94591
2022-11-15T08:22:19.469Z,94596
2022-11-15T08:25:44.750Z,94596
2022-11-15T08:29:11.389Z,94601
2022-11-15T08:32:36.602Z,94597
2022-11-15T08:36:01.876Z,94599
2022-11-15T08:39:27.136Z,94589
2022-11-15T08:42:52.374Z,94591
2022-11-15T08:46:17.645Z,94590
2022-11-15T08:49:42.925Z,94578
2022-11-15T08:53:08.174Z,94580
2022-11-15T08:56:33.440Z,94573
2022-11-15T08:59:58.719Z,94575
2022-11-15T09:03:24.059Z,94571
2022-11-15T09:06:49.327Z,94568
2022-11-15T09:10:14.543Z,94562
2022-11-15T09:13:39.807Z,94568
2022-11-15T09:17:05.057Z,94555
2022-11-15T09:20:30.351Z,94553
2022-11-15T09:23:55.569Z,94560
2022-11-15T09:27:20.854Z,94560
2022-11-15T09:30:46.165Z,94556
2022-11-15T09:34:11.411Z,94552
2022-11-15T09:37:36.675Z,94563
2022-11-15T09:41:01.925Z,94555
2022-11-15T09:44:27.167Z,94549
2022-11-15T09:47:52.449Z,94546
2022-11-15T09:51:17.712Z,94540
2022-11-15T09:54:58.430Z,94541
2022-11-15T09:58:08.220Z,94541
2022-11-15T10:01:33.498Z,94537
2022-11-15T10:04:58.771Z,94531
2022-11-15T10:08:24.005Z,94531
2022-11-15T10:11:49.275Z,94531
2022-11-15T10:15:14.507Z,94524
2022-11-15T10:18:39.783Z,94519
2022-11-15T10:22:05.025Z,94517
2022-11-15T10:25:30.275Z,94508
2022-11-15T10:28:55.568Z,94509
2022-11-15T10:32:20.848Z,94503
2022-11-15T10:35:47.163Z,94498
2022-11-15T10:39:11.396Z,94489
2022-11-15T10:42:36.635Z,94485
2022-11-15T10:46:13.650Z,94484
2022-11-15T10:49:27.154Z,94482
2022-11-15T10:52:52.413Z,94477
2022-11-15T10:56:17.620Z,94471
2022-11-15T10:59:42.896Z,94468
2022-11-15T11:03:08.217Z,94469
2022-11-15T11:06:33.354Z,94468
2022-11-15T11:09:58.625Z,94460
2022-11-15T11:13:23.847Z,94462
2022-11-15T11:16:49.112Z,94464
2022-11-15T11:20:14.437Z,94459
2022-11-15T11:23:39.651Z,94454
2022-11-15T11:27:04.918Z,94452
2022-11-15T11:30:30.181Z,94445
2022-11-15T11:33:55.436Z,94447
2022-11-15T11:37:20.710Z,94447
2022-11-15T11:40:45.967Z,94444
2022-11-15T11:44:11.205Z,94438
2022-11-15T11:47:36.442Z,94434
2022-11-15T11:51:01.693Z,94431
2022-11-15T11:54:26.969Z,94428
2022-11-15T11:57:52.234Z,94424
2022-11-15T12:01:17.491Z,94421
2022-11-15T12:04:42.730Z,94416
2022-11-15T12:08:07.998Z,94416
2022-11-15T12:11:33.320Z,94419
2022-11-15T12:14:58.546Z,94415
2022-11-15T12:18:23.781Z,94406
2022-11-15T12:21:49.048Z,94408
2022-11-15T12:25:14.304Z,94403
2022-11-15T12:28:48.734Z,94404
2022-11-15T12:32:04.882Z,94397
2022-11-15T12:35:30.191Z,94401
2022-11-15T12:38:55.454Z,94400
2022-11-15T12:42:20.724Z,94396
2022-11-15T12:45:46.028Z,94398
2022-11-15T12:49:11.278Z,94397
2022-11-15T12:52:36.549Z,94390
2022-11-15T12:56:01.852Z,94392
2022-11-15T12:59:27.279Z,94396
2022-11-15T13:02:52.578Z,94395
2022-11-15T13:06:17.813Z,94390
2022-11-15T13:09:43.058Z,94381
2022-11-15T13:13:08.408Z,94378
2022-11-15T13:16:33.660Z,94380
2022-11-15T13:19:58.935Z,94381
2022-11-15T13:23:24.317Z,94373
2022-11-15T13:26:49.519Z,94367
2022-11-15T13:30:14.754Z,94371
2022-11-15T13:33:40.005Z,94369
2022-11-15T13:37:05.275Z,94364
2022-11-15T13:40:30.500Z,94369
2022-11-15T13:43:55.728Z,94366
2022-11-15T13:47:20.959Z,94357
2022-11-15T13:50:46.195Z,94357
2022-11-15T13:54:11.523Z,94352
2022-11-15T13:57:36.686Z,94350
2022-11-15T14:01:01.929Z,94356
2022-11-15T14:04:27.185Z,94352
2022-11-15T14:07:52.430Z,94355
2022-11-15T14:11:17.669Z,94340
2022-11-15T14:14:42.888Z,94334
2022-11-15T14:18:08.116Z,94327
2022-11-15T14:21:33.368Z,94327
2022-11-15T14:24:58.586Z,94314
2022-11-15T14:28:23.870Z,94309
2022-11-15T15:06:40.784Z,94286
2022-11-15T15:10:32.873Z,94281
2022-11-15T15:13:31.278Z,94284
2022-11-15T15:16:56.540Z,94276
2022-11-15T15:20:21.818Z,94279
2022-11-15T15:23:47.133Z,94275
2022-11-15T15:27:12.379Z,94272
2022-11-15T15:30:37.679Z,94268
2022-11-15T15:34:02.969Z,94272
2022-11-15T15:37:28.264Z,94274
2022-11-15T15:40:53.559Z,94277
2022-11-15T15:44:18.822Z,94277
2022-11-15T15:47:44.127Z,94271
2022-11-15T15:51:15.636Z,94270
2022-11-15T15:54:34.682Z,94266
2022-11-15T15:57:59.999Z,94261
2022-11-15T16:01:25.506Z,94248
2022-11-15T16:04:50.539Z,94257
2022-11-15T16:08:15.825Z,94254
2022-11-15T16:11:41.115Z,94251
2022-11-15T16:15:06.435Z,94239
2022-11-15T16:18:31.971Z,94244
2022-11-15T16:21:56.985Z,94244
2022-11-15T16:25:22.253Z,94242
2022-11-15T16:28:47.515Z,94240
2022-11-15T16:32:12.842Z,94237
2022-11-15T16:35:38.033Z,94234
2022-11-15T16:39:03.277Z,94230
2022-11-15T16:42:28.531Z,94233
2022-11-15T16:45:53.909Z,94228
2022-11-15T16:49:19.188Z,94226
2022-11-15T16:52:44.370Z,94226
2022-11-15T16:56:09.595Z,94227
2022-11-15T16:59:38.271Z,94224
2022-11-15T17:03:00.118Z,94226
2022-11-15T17:06:25.395Z,94230
2022-11-15T17:09:50.631Z,94224
2022-11-15T17:13:15.876Z,94230
2022-11-15T17:16:41.123Z,94229
2022-11-15T17:20:06.395Z,94225
2022-11-15T17:23:31.656Z,94226
2022-11-15T17:26:56.885Z,94226
2022-11-15T17:30:22.107Z,94227
2022-11-15T17:33:47.441Z,94219
2022-11-15T17:37:12.801Z,94213
2022-11-15T17:40:38.176Z,94207
2022-11-15T17:44:03.679Z,94212
2022-11-15T17:47:28.787Z,94202
2022-11-15T17:50:54.128Z,94200
2022-11-15T17:54:19.449Z,94197
2022-11-15T17:57:44.801Z,94193
2022-11-15T18:01:10.166Z,94193
2022-11-15T18:04:35.456Z,94187
2022-11-15T18:08:00.762Z,94186
2022-11-15T18:11:26.076Z,94184
2022-11-15T18:14:51.427Z,94187
2022-11-15T18:18:16.708Z,94187
2022-11-15T18:21:42.266Z,94180
2022-11-15T18:25:07.613Z,94171
2022-11-15T18:28:33.199Z,94171
2022-11-15T18:31:58.374Z,94170
2022-11-15T18:35:23.667Z,94162
2022-11-15T18:38:48.996Z,94162
2022-11-15T18:42:14.316Z,94175
2022-11-15T18:45:39.677Z,94176
2022-11-15T18:49:04.997Z,94174
2022-11-15T18:52:30.322Z,94168
2022-11-15T18:55:55.658Z,94166
2022-11-15T18:59:20.993Z,94165
2022-11-15T19:02:46.365Z,94167
2022-11-15T19:06:11.765Z,94158
2022-11-15T19:09:37.072Z,94147
2022-11-15T19:13:03.184Z,94155
2022-11-15T19:16:28.499Z,94147
2022-11-15T19:19:53.828Z,94146
2022-11-15T19:23:19.226Z,94143
2022-11-15T19:26:44.545Z,94146
2022-11-15T19:30:09.848Z,94147
2022-11-15T19:33:35.382Z,94143
2022-11-15T19:37:00.495Z,94138
2022-11-15T19:40:25.855Z,94132
2022-11-15T19:43:51.157Z,94131
2022-11-15T19:47:16.488Z,94121
2022-11-15T19:50:41.783Z,94129
2022-11-15T19:54:07.096Z,94131
2022-11-15T19:57:32.469Z,94131
2022-11-15T20:00:57.846Z,94127
2022-11-15T20:04:23.201Z,94126
2022-11-15T20:07:48.861Z,94120
2022-11-15T20:11:14.177Z,94113
2022-11-15T20:14:39.552Z,94113
2022-11-15T20:18:04.862Z,94107
2022-11-15T20:21:30.238Z,94098
2022-11-15T20:24:55.555Z,94102
2022-11-15T20:28:20.896Z,94100
2022-11-15T20:31:46.249Z,94094
2022-11-15T20:35:11.553Z,94099
2022-11-15T20:38:36.870Z,94091
2022-11-15T20:42:02.182Z,94089
2022-11-15T20:45:27.518Z,94077
2022-11-15T20:48:52.869Z,94082
2022-11-15T20:52:18.177Z,94082
2022-11-15T20:55:44.358Z,94080
2022-11-15T20:59:09.826Z,94078
2022-11-15T21:02:35.112Z,94069
2022-11-15T21:06:00.323Z,94067
2022-11-15T21:09:25.519Z,94059
2022-11-15T21:12:50.756Z,94053
2022-11-15T21:16:16.004Z,94046
2022-11-15T21:19:41.241Z,94046
2022-11-15T21:23:06.514Z,94040
2022-11-15T21:26:31.710Z,94040
2022-11-15T21:29:56.947Z,94039
2022-11-15T21:33:22.189Z,94037
2022-11-15T21:36:47.427Z,94033
2022-11-15T21:40:12.688Z,94030
2022-11-15T21:43:37.925Z,94024
2022-11-15T21:47:03.158Z,94025
2022-11-15T21:50:28.396Z,94019
2022-11-15T21:53:53.646Z,94014
2022-11-15T21:57:18.903Z,94015
2022-11-15T22:00:44.166Z,94004
2022-11-15T22:04:09.346Z,94006
2022-11-15T22:07:34.649Z,93999
2022-11-15T22:10:59.852Z,94006
2022-11-15T22:14:25.114Z,93999
2022-11-15T22:17:50.340Z,93991
2022-11-15T22:21:15.571Z,93985
2022-11-15T22:24:40.786Z,93975
2022-11-15T22:28:06.030Z,93965
2022-11-15T22:31:31.296Z,93964
2022-11-15T22:34:56.502Z,93959
2022-11-15T22:38:21.730Z,93959
2022-11-15T22:41:46.984Z,93953
2022-11-15T22:45:12.196Z,93942
2022-11-15T22:48:37.984Z,93941
2022-11-15T22:52:02.652Z,93940
2022-11-15T22:55:27.865Z,93936
2022-11-15T22:58:53.106Z,93927
2022-11-15T23:02:18.337Z,93929
2022-11-15T23:05:43.589Z,93924
2022-11-15T23:09:08.832Z,93918
2022-11-15T23:12:34.081Z,93919
2022-11-15T23:15:59.296Z,93922
2022-11-15T23:19:24.525Z,93922
2022-11-15T23:22:49.798Z,93915
2022-11-15T23:26:14.985Z,93914
2022-11-15T23:29:40.211Z,93923
2022-11-15T23:33:05.458Z,93915
2022-11-15T23:36:30.675Z,93914
2022-11-15T23:39:55.957Z,93913
2022-11-15T23:43:21.185Z,93909
2022-11-15T23:46:46.435Z,93901
2022-11-15T23:50:11.644Z,93897
2022-11-15T23:53:36.880Z,93893
2022-11-15T23:57:02.166Z,93885
